Terminal Aerodrome Forecast
Issued by NWS

Current Version | Previous Version | Graphics & Text | Print | Product List | Glossary On
Versions: 1 2 3 4 5 6 7 8 9 10 11 12 13 14 15 16 17 18 19 20 21 22 23 24 25 26 27 28 29 30 31 32 33 34 35 36
000
FTUS41 KRNK 192320
TAFLWB
TAF
KLWB 192320Z 2000/2024 VRB03KT P6SM VCSH OVC080
     FM200200 VRB03KT P6SM OVC035
     FM200600 00000KT 3SM BR SCT003 OVC025
     FM200800 00000KT 1/2SM FG OVC002
     FM201200 VRB03KT 5SM BR SCT003 BKN008
     FM201800 26005KT P6SM BKN060=

USA.gov is the U.S. government's official web portal to all federal, state and local government web resources and services.